This is the latest recevied weather packets stored in our database for station/object IU2EVW-13. If no packets are shown the sender has not sent any weather packets the latest 10 day(s).
| Time | Temp. | Humidity | Pressure | Rain* | Wind** | Luminosity | Snow |
|---|---|---|---|---|---|---|---|
| 1788137119 | 18.89° C | 62% | 1019.3 hPa | - | - | - | - |
| 1788135918 | 18.89° C | 64% | 1019.5 hPa | - | - | - | - |
| 1788134716 | 19.44° C | 62% | 1019.4 hPa | - | - | - | - |
| 1788133515 | 19.44° C | 63% | 1019.5 hPa | - | - | - | - |
| 1788132313 | 20° C | 61% | 1019.6 hPa | - | - | - | - |
| 1788131111 | 20° C | 62% | 1019.8 hPa | - | - | - | - |
| 1788129910 | 20° C | 59% | 1019.9 hPa | - | - | - | - |
| 1788128709 | 20° C | 61% | 1019.7 hPa | - | - | - | - |
| 1788127508 | 20° C | 62% | 1019.7 hPa | - | - | - | - |
| 1788126306 | 20° C | 62% | 1019.6 hPa | - | - | - | - |
| 1788125105 | 20° C | 61% | 1019.5 hPa | - | - | - | - |
| 1788123904 | 20.56° C | 59% | 1019.4 hPa | - | - | - | - |
| 1788122703 | 20.56° C | 59% | 1019.3 hPa | - | - | - | - |
| 1788121501 | 20.56° C | 59% | 1019.1 hPa | - | - | - | - |
| 1788120300 | 20.56° C | 59% | 1018.9 hPa | - | - | - | - |
| 1788119099 | 21.11° C | 60% | 1018.9 hPa | - | - | - | - |
| 1788117897 | 21.67° C | 57% | 1018.8 hPa | - | - | - | - |
| 1788116696 | 21.67° C | 55% | 1018.5 hPa | - | - | - | - |
| 1788115494 | 22.22° C | 53% | 1018.3 hPa | - | - | - | - |
| 1788114293 | 21.67° C | 54% | 1018 hPa | - | - | - | - |
| 1788113092 | 22.22° C | 53% | 1017.8 hPa | - | - | - | - |
| 1788111891 | 23.33° C | 50% | 1017.5 hPa | - | - | - | - |
| 1788110689 | 25° C | 46% | 1017.4 hPa | - | - | - | - |
| 1788109488 | 27.22° C | 40% | 1017.2 hPa | - | - | - | - |
| 1788108287 | 29.44° C | 33% | 1017.1 hPa | - | - | - | - |
* Rain since midnight (hover to see other rain measurements)
** Current wind speed in m/s (hover to see current wind gust speed)